Time;durP1;ratioP1;P1;durP2;ratioP2;P2;SDS_P1;SDS_P2;PMS_P1;PMS_P2;Temp;Humidity;BMP_temperature;BMP_pressure;BME280_temperature;BME280_humidity;BME280_pressure;Samples;Min_cycle;Max_cycle;Signal;HPM_P1;HPM_P2
2024/03/18 00:02:29;;;;;;;12.20;6.90;;;;;;;1.93;67.11;96821.60;108628;1274;25196;-72
2024/03/18 00:04:59;;;;;;;9.90;5.10;;;;;;;1.95;67.18;96822.02;108613;1275;22522;-72
2024/03/18 00:07:30;;;;;;;9.60;6.10;;;;;;;1.99;67.33;96816.18;108682;1274;22529;-72
2024/03/18 00:10:00;;;;;;;10.00;5.40;;;;;;;2.01;67.07;96814.31;108634;1274;22532;-72
2024/03/18 00:12:31;;;;;;;11.00;6.40;;;;;;;1.97;66.85;96804.61;108629;1275;22551;-72
2024/03/18 00:15:02;;;;;;;10.10;5.00;;;;;;;1.93;66.84;96802.25;108670;1274;22535;-72
2024/03/18 00:17:34;;;;;;;8.00;4.40;;;;;;;1.87;66.94;96804.98;108635;1274;22536;-72
2024/03/18 00:20:17;;;;;;;10.40;5.30;;;;;;;1.79;66.99;96803.00;108630;1275;22556;-72
2024/03/18 00:22:49;;;;;;;8.80;5.30;;;;;;;1.72;67.10;96802.13;108621;1267;22605;-72
2024/03/18 00:25:20;;;;;;;11.80;5.40;;;;;;;1.67;67.31;96800.47;108599;1273;22609;-72
2024/03/18 00:27:50;;;;;;;8.60;5.10;;;;;;;1.67;67.38;96797.94;108696;1274;24269;-72
2024/03/18 00:30:21;;;;;;;9.30;5.60;;;;;;;1.64;67.48;96797.24;108629;1270;22549;-72
2024/03/18 00:32:51;;;;;;;10.70;5.30;;;;;;;1.63;67.44;96799.98;108639;1275;22534;-72
2024/03/18 00:35:22;;;;;;;6.30;3.90;;;;;;;1.65;67.41;96793.23;108632;1275;22540;-72
2024/03/18 00:37:52;;;;;;;6.00;3.20;;;;;;;1.61;67.25;96791.45;108669;1267;22631;-72
2024/03/18 00:40:23;;;;;;;9.30;5.00;;;;;;;1.54;67.24;96787.10;108629;1268;22575;-72
2024/03/18 00:42:53;;;;;;;8.50;3.80;;;;;;;1.49;67.18;96779.70;108659;1272;25154;-72
2024/03/18 00:45:23;;;;;;;6.60;4.50;;;;;;;1.43;67.31;96788.79;108636;1275;22526;-72
2024/03/18 00:47:54;;;;;;;6.90;3.80;;;;;;;1.41;67.26;96786.07;108648;1256;22562;-72
2024/03/18 00:50:26;;;;;;;11.20;5.70;;;;;;;1.41;67.22;96787.43;108646;1274;22540;-72
2024/03/18 00:52:57;;;;;;;8.30;4.80;;;;;;;1.42;67.29;96784.41;108613;1270;22527;-72
2024/03/18 00:55:27;;;;;;;6.90;4.10;;;;;;;1.43;67.25;96781.63;108605;1267;22643;-72
2024/03/18 00:57:57;;;;;;;8.30;4.80;;;;;;;1.40;67.32;96779.52;108686;1267;24223;-72
2024/03/18 01:00:27;;;;;;;8.80;4.50;;;;;;;1.38;67.21;96780.70;108638;1274;22528;-72
2024/03/18 01:02:58;;;;;;;9.50;5.50;;;;;;;1.44;67.41;96775.76;108637;1267;22529;-72
2024/03/18 01:05:28;;;;;;;8.40;5.10;;;;;;;1.45;67.47;96776.82;108668;1267;22675;-72
2024/03/18 01:07:58;;;;;;;9.10;5.80;;;;;;;1.46;67.73;96776.08;108676;1270;22585;-72
2024/03/18 01:10:29;;;;;;;7.50;5.10;;;;;;;1.47;67.64;96774.47;108638;1270;22538;-72
2024/03/18 01:12:59;;;;;;;8.50;4.70;;;;;;;1.43;67.88;96775.98;108622;1274;22523;-72
2024/03/18 01:15:29;;;;;;;9.60;4.90;;;;;;;1.42;68.12;96776.70;108611;1275;23004;-72
2024/03/18 01:18:00;;;;;;;6.40;4.50;;;;;;;1.41;68.10;96771.48;108690;1274;22559;-72
2024/03/18 01:20:30;;;;;;;7.70;4.80;;;;;;;1.40;68.30;96774.05;108673;1270;22572;-72
2024/03/18 01:23:00;;;;;;;7.60;4.60;;;;;;;1.39;68.16;96775.73;108673;1267;22530;-72
2024/03/18 01:25:33;;;;;;;6.30;4.40;;;;;;;1.41;68.40;96769.88;108614;1274;24305;-72
2024/03/18 01:28:04;;;;;;;6.30;4.40;;;;;;;1.42;68.17;96766.81;108657;1275;22549;-72
2024/03/18 01:30:43;;;;;;;6.20;3.80;;;;;;;1.35;68.38;96768.15;108678;1274;22578;-72
2024/03/18 01:33:16;;;;;;;5.40;3.80;;;;;;;1.33;68.44;96771.80;108598;1274;22525;-72
2024/03/18 01:35:49;;;;;;;7.10;4.20;;;;;;;1.35;68.31;96763.86;108638;1267;22531;-72
2024/03/18 01:38:19;;;;;;;5.00;3.60;;;;;;;1.34;68.46;96768.92;108646;1274;22562;-72
2024/03/18 01:40:50;;;;;;;7.40;4.50;;;;;;;1.35;68.39;96767.42;108612;1273;22527;-72
2024/03/18 01:43:21;;;;;;;5.30;4.10;;;;;;;1.32;68.38;96764.05;108582;1267;22527;-72
2024/03/18 01:45:52;;;;;;;6.60;4.10;;;;;;;1.32;68.33;96757.05;108629;1274;22559;-72
2024/03/18 01:48:22;;;;;;;7.00;4.10;;;;;;;1.32;68.17;96755.49;108679;1274;25425;-71
2024/03/18 01:50:53;;;;;;;4.80;3.50;;;;;;;1.30;68.12;96756.16;108639;1274;22588;-72
2024/03/18 01:53:26;;;;;;;5.50;3.70;;;;;;;1.32;68.23;96759.71;108602;1270;22644;-72
2024/03/18 01:55:56;;;;;;;6.80;4.20;;;;;;;1.30;67.97;96757.52;108657;1274;22520;-71
2024/03/18 01:58:27;;;;;;;6.10;3.90;;;;;;;1.30;68.01;96760.66;108621;1274;22590;-72
2024/03/18 02:00:57;;;;;;;7.00;4.50;;;;;;;1.33;67.98;96759.70;108590;1260;22579;-72
2024/03/18 02:03:27;;;;;;;9.60;4.40;;;;;;;1.35;67.82;96758.95;108598;1274;24267;-72
2024/03/18 02:05:58;;;;;;;7.70;5.20;;;;;;;1.32;67.74;96752.67;108642;1274;22567;-72
2024/03/18 02:08:28;;;;;;;7.20;5.10;;;;;;;1.20;67.61;96758.52;108648;1274;22540;-72
2024/03/18 02:10:59;;;;;;;7.60;5.70;;;;;;;1.15;67.67;96751.02;108621;1267;24044;-72
2024/03/18 02:13:31;;;;;;;9.60;5.70;;;;;;;1.10;67.55;96753.36;108609;1274;22529;-71
2024/03/18 02:16:02;;;;;;;7.40;4.60;;;;;;;1.05;67.51;96750.27;108664;1274;22536;-72
2024/03/18 02:18:33;;;;;;;8.60;5.50;;;;;;;0.97;67.66;96752.98;108679;1274;22539;-72
2024/03/18 02:21:04;;;;;;;10.10;5.50;;;;;;;0.96;67.84;96754.52;108647;1274;22522;-72
2024/03/18 02:23:35;;;;;;;10.40;6.20;;;;;;;0.94;67.58;96749.39;108623;1275;24290;-72
2024/03/18 02:26:11;;;;;;;8.10;5.70;;;;;;;0.92;67.81;96745.00;108662;1274;22522;-72
2024/03/18 02:28:44;;;;;;;9.50;6.50;;;;;;;0.89;67.56;96748.33;108672;1274;23902;-72
2024/03/18 02:31:15;;;;;;;9.30;5.70;;;;;;;0.90;67.82;96750.48;108575;1270;22582;-72
2024/03/18 02:33:45;;;;;;;10.30;6.10;;;;;;;0.88;67.63;96747.20;108626;1274;23978;-72
2024/03/18 02:36:20;;;;;;;8.70;5.80;;;;;;;0.91;68.01;96742.89;108631;1274;22933;-72
2024/03/18 02:38:52;;;;;;;7.10;5.00;;;;;;;0.85;67.83;96744.98;108612;1263;25575;-72
2024/03/18 02:41:23;;;;;;;6.50;4.60;;;;;;;0.84;67.79;96740.80;108711;1274;24380;-72
2024/03/18 02:43:53;;;;;;;9.70;5.70;;;;;;;0.81;67.81;96741.54;108642;1269;22527;-71
2024/03/18 02:46:23;;;;;;;7.70;5.00;;;;;;;0.79;67.89;96739.33;108614;1275;22638;-72
2024/03/18 02:48:53;;;;;;;7.60;4.60;;;;;;;0.75;67.89;96737.76;108627;1274;22535;-72
2024/03/18 02:51:24;;;;;;;7.30;3.70;;;;;;;0.73;67.96;96733.40;108629;1275;22527;-72
2024/03/18 02:53:57;;;;;;;8.50;3.80;;;;;;;0.68;67.42;96732.25;108594;1274;22522;-72
2024/03/18 02:56:28;;;;;;;4.10;3.10;;;;;;;0.63;67.46;96736.95;108590;1273;22532;-72
2024/03/18 02:58:58;;;;;;;5.60;3.40;;;;;;;0.60;67.29;96747.45;108658;1256;22596;-72
2024/03/18 03:01:29;;;;;;;7.30;4.30;;;;;;;0.58;67.35;96743.17;108628;1274;22523;-72
2024/03/18 03:03:59;;;;;;;6.80;3.80;;;;;;;0.58;67.41;96743.70;108634;1274;22521;-72
2024/03/18 03:06:29;;;;;;;5.60;3.70;;;;;;;0.59;67.55;96744.40;108631;1267;22531;-72
2024/03/18 03:09:02;;;;;;;4.20;2.50;;;;;;;0.60;67.23;96738.98;108635;1274;22634;-72
2024/03/18 03:11:32;;;;;;;5.00;2.60;;;;;;;0.56;67.33;96735.52;108679;1274;22514;-72
2024/03/18 03:14:02;;;;;;;4.00;2.70;;;;;;;0.51;67.46;96734.59;108621;1275;22932;-72
2024/03/18 03:16:33;;;;;;;5.10;2.80;;;;;;;0.47;67.27;96731.33;108552;1274;22532;-72
2024/03/18 03:19:03;;;;;;;2.60;2.00;;;;;;;0.45;67.22;96738.30;108666;1268;22534;-72
2024/03/18 03:21:33;;;;;;;3.00;2.20;;;;;;;0.42;66.69;96728.87;108619;1274;22635;-72
2024/03/18 03:24:15;;;;;;;3.80;2.00;;;;;;;0.38;66.17;96726.20;108612;1269;24929;-72
2024/03/18 03:26:47;;;;;;;4.10;2.40;;;;;;;0.34;66.18;96732.26;108645;1274;22526;-72
2024/03/18 03:29:18;;;;;;;3.50;2.00;;;;;;;0.33;66.02;96732.42;108640;1274;22529;-72
2024/03/18 03:31:48;;;;;;;3.90;2.00;;;;;;;0.33;66.23;96735.76;108653;1274;22579;-72
2024/03/18 03:34:19;;;;;;;2.50;1.90;;;;;;;0.32;66.10;96732.39;108619;1251;23236;-72
2024/03/18 03:36:49;;;;;;;3.20;1.80;;;;;;;0.32;65.67;96729.79;108672;1274;22530;-72
2024/03/18 03:39:19;;;;;;;2.80;2.20;;;;;;;0.31;65.73;96731.33;108659;1274;22685;-71
2024/03/18 03:41:50;;;;;;;4.40;2.40;;;;;;;0.34;66.07;96737.03;108622;1274;22539;-72
2024/03/18 03:44:21;;;;;;;3.90;2.60;;;;;;;0.39;66.26;96733.66;108633;1267;22534;-72
2024/03/18 03:46:51;;;;;;;3.60;1.90;;;;;;;0.45;66.63;96736.64;108626;1271;22522;-72
2024/03/18 03:49:24;;;;;;;5.20;2.00;;;;;;;0.52;66.49;96734.09;108632;1274;25298;-72
2024/03/18 03:51:55;;;;;;;3.20;2.00;;;;;;;0.51;66.05;96730.89;108654;1266;23344;-72
2024/03/18 03:54:26;;;;;;;1.90;1.50;;;;;;;0.52;66.00;96734.34;108566;1274;22522;-72
2024/03/18 03:56:56;;;;;;;4.90;2.70;;;;;;;0.52;65.91;96735.74;108622;1274;25895;-72
2024/03/18 03:59:26;;;;;;;4.80;2.70;;;;;;;0.51;65.95;96734.11;108669;1275;22520;-72
2024/03/18 04:01:59;;;;;;;3.10;2.20;;;;;;;0.54;65.95;96736.23;108621;1266;22779;-72
2024/03/18 04:04:30;;;;;;;4.50;2.10;;;;;;;0.57;65.99;96735.33;108630;1274;22522;-72
2024/03/18 04:07:01;;;;;;;3.90;2.40;;;;;;;0.52;65.85;96734.58;108654;1267;22688;-72
2024/03/18 04:09:31;;;;;;;2.50;1.90;;;;;;;0.48;65.85;96742.11;108618;1274;22554;-72
2024/03/18 04:12:02;;;;;;;3.80;2.20;;;;;;;0.50;66.14;96741.86;108680;1268;25243;-72
2024/03/18 04:14:32;;;;;;;3.90;2.00;;;;;;;0.47;66.04;96745.01;108604;1274;25254;-72
2024/03/18 04:17:10;;;;;;;3.40;2.10;;;;;;;0.47;66.18;96743.38;108671;1274;22518;-72
2024/03/18 04:19:44;;;;;;;3.70;2.10;;;;;;;0.45;66.37;96749.71;108623;1274;22571;-72
2024/03/18 04:22:14;;;;;;;3.50;2.30;;;;;;;0.40;66.47;96754.44;108645;1273;22522;-72
2024/03/18 04:24:45;;;;;;;3.80;2.30;;;;;;;0.41;67.01;96760.56;108617;1251;22544;-72
2024/03/18 04:27:15;;;;;;;4.40;2.90;;;;;;;0.44;67.53;96764.98;108671;1274;22536;-72
2024/03/18 04:29:46;;;;;;;3.60;2.60;;;;;;;0.36;67.67;96768.66;108659;1274;22636;-72
2024/03/18 04:32:16;;;;;;;4.10;2.60;;;;;;;0.30;68.62;96774.20;108637;1274;22526;-72
2024/03/18 04:34:46;;;;;;;3.20;2.80;;;;;;;0.19;69.00;96773.08;108583;1270;22544;-72
2024/03/18 04:37:17;;;;;;;5.60;3.50;;;;;;;0.11;69.86;96777.90;108638;1268;22610;-72
2024/03/18 04:39:47;;;;;;;4.60;3.50;;;;;;;0.05;70.53;96774.33;108611;1269;22529;-72
2024/03/18 04:42:20;;;;;;;4.60;3.20;;;;;;;0.03;71.32;96775.02;108667;1269;22542;-72
2024/03/18 04:44:50;;;;;;;3.50;3.10;;;;;;;-0.00;71.63;96774.98;108639;1274;25271;-72
2024/03/18 04:47:22;;;;;;;4.00;2.90;;;;;;;-0.03;72.08;96777.32;108627;1274;22526;-72
2024/03/18 04:49:53;;;;;;;3.00;2.40;;;;;;;-0.08;72.14;96776.09;108721;1274;22638;-72
2024/03/18 04:52:23;;;;;;;4.00;3.20;;;;;;;-0.28;72.82;96774.04;108593;1274;25508;-72
2024/03/18 04:54:53;;;;;;;4.30;3.10;;;;;;;-0.33;73.20;96780.10;108634;1274;22529;-72
2024/03/18 04:57:24;;;;;;;4.60;3.20;;;;;;;-0.36;73.61;96784.28;108630;1274;23344;-72
2024/03/18 04:59:54;;;;;;;3.40;3.10;;;;;;;-0.37;73.92;96789.38;108670;1274;22532;-72
2024/03/18 05:02:27;;;;;;;5.40;3.20;;;;;;;-0.30;74.73;96791.16;108633;1268;22520;-72
2024/03/18 05:04:57;;;;;;;4.20;3.00;;;;;;;-0.19;74.97;96785.77;108616;1274;22513;-72
2024/03/18 05:07:28;;;;;;;4.70;3.30;;;;;;;-0.18;75.07;96783.83;108664;1268;22554;-72
2024/03/18 05:09:59;;;;;;;5.20;3.90;;;;;;;-0.22;74.46;96788.05;108646;1260;22533;-72
2024/03/18 05:12:30;;;;;;;5.40;2.90;;;;;;;-0.30;74.73;96783.58;108611;1274;22535;-72
2024/03/18 05:15:00;;;;;;;4.40;2.60;;;;;;;-0.33;75.19;96782.55;108629;1269;22526;-72
2024/03/18 05:17:32;;;;;;;5.30;3.70;;;;;;;-0.28;75.06;96789.36;108626;1274;25584;-72
2024/03/18 05:20:04;;;;;;;4.90;3.50;;;;;;;-0.25;75.81;96789.88;108654;1273;25269;-72
2024/03/18 05:22:34;;;;;;;4.40;3.50;;;;;;;-0.19;76.06;96792.44;108642;1274;22535;-71
2024/03/18 05:25:13;;;;;;;4.80;2.80;;;;;;;-0.10;76.15;96791.98;108648;1267;23648;-72
2024/03/18 05:27:44;;;;;;;4.00;2.40;;;;;;;-0.13;75.25;96781.24;108673;1274;22591;-71
2024/03/18 05:30:15;;;;;;;2.90;2.30;;;;;;;-0.29;75.36;96786.55;108646;1274;22530;-71
2024/03/18 05:32:45;;;;;;;2.10;1.80;;;;;;;-0.32;75.51;96786.39;108658;1274;22519;-72
2024/03/18 05:35:16;;;;;;;4.10;2.90;;;;;;;-0.33;75.05;96782.30;108669;1274;22538;-72
2024/03/18 05:37:47;;;;;;;2.70;2.30;;;;;;;-0.35;75.32;96781.95;108698;1266;22549;-72
2024/03/18 05:40:20;;;;;;;13.40;8.80;;;;;;;-0.36;75.12;96779.64;108705;1274;23234;-71
2024/03/18 05:42:50;;;;;;;4.20;2.20;;;;;;;-0.45;75.03;96782.38;108581;1274;23275;-71
2024/03/18 05:45:21;;;;;;;2.50;2.30;;;;;;;-0.55;75.21;96796.38;108620;1268;22585;-71
2024/03/18 05:47:51;;;;;;;3.80;2.40;;;;;;;-0.58;75.70;96793.34;108692;1274;22519;-71
2024/03/18 05:50:21;;;;;;;2.80;2.10;;;;;;;-0.54;75.82;96795.03;108662;1272;25335;-71
2024/03/18 05:52:52;;;;;;;2.50;2.10;;;;;;;-0.50;75.93;96795.66;108605;1274;22522;-71
2024/03/18 05:55:25;;;;;;;2.30;2.10;;;;;;;-0.45;75.86;96791.52;108668;1274;24281;-71
2024/03/18 05:57:57;;;;;;;2.60;2.30;;;;;;;-0.45;76.24;96796.52;108644;1274;22518;-71
2024/03/18 06:00:28;;;;;;;3.80;2.20;;;;;;;-0.37;76.29;96796.11;108639;1274;22519;-71
2024/03/18 06:02:59;;;;;;;2.80;2.40;;;;;;;-0.26;76.50;96794.80;108610;1274;23014;-71
2024/03/18 06:05:29;;;;;;;3.00;2.40;;;;;;;-0.13;76.47;96789.98;108394;1263;389524;-71
2024/03/18 06:08:00;;;;;;;3.20;2.60;;;;;;;0.01;76.17;96788.53;108681;1269;22522;-72
2024/03/18 06:10:31;;;;;;;4.00;2.30;;;;;;;0.14;76.03;96788.95;108715;1267;25248;-72
2024/03/18 06:13:01;;;;;;;2.50;2.30;;;;;;;0.43;76.11;96788.04;108733;1274;24478;-72
2024/03/18 06:15:32;;;;;;;3.40;2.90;;;;;;;0.59;75.36;96786.63;108744;1274;22540;-73
2024/03/18 06:18:02;;;;;;;2.70;2.30;;;;;;;0.79;75.13;96787.09;108729;1274;22633;-72
2024/03/18 06:20:33;;;;;;;4.90;2.80;;;;;;;0.80;74.67;96782.52;108656;1267;22610;-72
2024/03/18 06:23:03;;;;;;;4.30;3.20;;;;;;;0.69;74.14;96788.48;108630;1274;24269;-72
2024/03/18 06:28:22;;;;;;;5.50;2.90;;;;;;;0.34;74.21;96792.84;108657;1274;24223;-72
2024/03/18 06:30:53;;;;;;;5.60;3.10;;;;;;;0.30;74.54;96790.41;108705;1274;24944;-72
2024/03/18 06:33:43;;;;;;;5.10;3.30;;;;;;;0.21;74.58;96792.25;108622;1269;22545;-72
2024/03/18 06:36:14;;;;;;;5.90;3.70;;;;;;;0.18;74.80;96796.64;108664;1266;22533;-72
2024/03/18 06:38:45;;;;;;;3.60;2.50;;;;;;;0.11;74.91;96800.30;108662;1268;25358;-72
2024/03/18 06:41:16;;;;;;;4.80;3.60;;;;;;;0.13;74.97;96797.25;108684;1274;25416;-72
2024/03/18 06:43:46;;;;;;;4.10;3.50;;;;;;;0.07;74.51;96791.27;108617;1271;22651;-72
2024/03/18 06:46:16;;;;;;;4.90;3.30;;;;;;;-0.04;74.48;96791.59;108666;1274;22533;-72
2024/03/18 06:48:47;;;;;;;6.40;3.40;;;;;;;-0.10;74.33;96783.76;108637;1270;22602;-72
2024/03/18 06:51:31;;;;;;;5.30;3.10;;;;;;;-0.22;74.89;96789.98;108578;1272;22570;-72
2024/03/18 06:54:01;;;;;;;5.50;3.70;;;;;;;-0.17;75.18;96788.66;108608;1270;22556;-72
2024/03/18 06:56:32;;;;;;;6.00;4.20;;;;;;;-0.12;75.16;96786.66;108628;1274;22571;-72
2024/03/18 06:59:02;;;;;;;6.30;4.50;;;;;;;-0.08;75.25;96787.69;108657;1269;25405;-72
2024/03/18 07:01:33;;;;;;;5.00;4.10;;;;;;;-0.06;74.80;96786.55;108651;1274;22533;-72
2024/03/18 07:04:05;;;;;;;5.80;4.10;;;;;;;-0.01;75.09;96788.17;108621;1267;25407;-72
2024/03/18 07:06:38;;;;;;;4.90;3.60;;;;;;;-0.04;74.70;96783.48;108641;1275;26472;-72
2024/03/18 07:09:09;;;;;;;4.20;3.30;;;;;;;-0.05;74.58;96786.98;108680;1274;22522;-72
2024/03/18 07:11:42;;;;;;;5.20;4.20;;;;;;;-0.06;74.41;96790.03;108621;1268;25241;-72
2024/03/18 07:14:13;;;;;;;6.40;4.10;;;;;;;-0.04;74.65;96792.39;108633;1266;22617;-72
2024/03/18 07:16:44;;;;;;;4.80;3.70;;;;;;;-0.05;74.21;96786.70;108677;1270;22519;-72
2024/03/18 07:19:18;;;;;;;4.10;3.50;;;;;;;-0.05;74.00;96793.73;108654;1266;23175;-72
2024/03/18 07:21:49;;;;;;;5.20;3.70;;;;;;;-0.07;74.09;96790.69;108682;1274;22536;-72
2024/03/18 07:24:20;;;;;;;7.10;4.20;;;;;;;-0.07;73.95;96790.48;108608;1267;22533;-72
2024/03/18 07:26:50;;;;;;;5.40;3.80;;;;;;;-0.15;74.15;96796.45;108662;1274;22641;-72
2024/03/18 07:29:21;;;;;;;6.30;4.20;;;;;;;-0.15;74.04;96800.13;108655;1267;22538;-72
2024/03/18 07:31:56;;;;;;;4.80;3.80;;;;;;;-0.09;74.15;96791.13;108587;1270;22525;-72
2024/03/18 07:34:27;;;;;;;5.40;3.80;;;;;;;-0.09;73.93;96797.27;108651;1266;22519;-72
2024/03/18 07:36:57;;;;;;;6.70;3.80;;;;;;;-0.01;74.06;96794.48;108648;1274;25339;-72
2024/03/18 07:39:28;;;;;;;5.50;4.00;;;;;;;-0.02;73.98;96796.83;108682;1269;25408;-72
2024/03/18 07:41:59;;;;;;;5.10;3.60;;;;;;;-0.05;73.92;96796.29;108666;1267;22662;-72
2024/03/18 07:44:30;;;;;;;5.10;3.50;;;;;;;0.01;74.06;96797.23;108640;1274;22540;-71
2024/03/18 07:47:01;;;;;;;5.20;3.70;;;;;;;0.08;73.87;96795.20;108619;1274;22532;-72
2024/03/18 07:49:32;;;;;;;6.50;4.40;;;;;;;0.08;74.30;96797.69;108623;1274;24293;-72
2024/03/18 07:52:04;;;;;;;5.70;3.80;;;;;;;0.16;74.03;96797.85;108640;1274;22861;-72
2024/03/18 07:54:36;;;;;;;5.50;3.90;;;;;;;0.20;74.21;96807.53;108590;1274;22537;-72
2024/03/18 07:57:07;;;;;;;5.50;4.30;;;;;;;0.24;73.87;96806.83;108644;1268;24467;-72
2024/03/18 07:59:41;;;;;;;6.00;4.20;;;;;;;0.23;74.17;96809.33;108650;1274;22543;-72
2024/03/18 08:02:14;;;;;;;4.90;4.30;;;;;;;0.27;74.13;96804.85;108629;1269;22506;-72
2024/03/18 08:04:45;;;;;;;5.70;4.10;;;;;;;0.30;74.11;96798.52;108599;1258;25346;-72
2024/03/18 08:07:15;;;;;;;6.20;4.20;;;;;;;0.37;73.64;96804.20;108631;1251;22551;-72
2024/03/18 08:09:46;;;;;;;5.90;4.80;;;;;;;0.26;73.29;96800.48;108634;1274;22526;-72
2024/03/18 08:12:16;;;;;;;6.10;4.60;;;;;;;0.28;73.20;96800.20;108619;1274;22555;-72
2024/03/18 08:14:47;;;;;;;7.70;5.00;;;;;;;0.31;73.21;96803.28;108626;1274;23001;-72
2024/03/18 08:17:17;;;;;;;6.90;5.10;;;;;;;0.36;73.16;96806.54;108650;1269;22576;-72
2024/03/18 08:19:48;;;;;;;5.00;3.80;;;;;;;0.54;73.00;96799.02;108622;1270;22533;-72
2024/03/18 08:22:18;;;;;;;6.10;4.30;;;;;;;0.87;73.09;96793.51;108664;1268;22544;-72
2024/03/18 08:24:49;;;;;;;6.50;5.20;;;;;;;1.21;72.68;96793.59;108632;1267;26359;-72
2024/03/18 08:27:20;;;;;;;8.30;5.70;;;;;;;1.26;72.05;96791.02;108706;1274;22522;-72
2024/03/18 08:29:50;;;;;;;8.80;6.10;;;;;;;1.17;71.58;96786.00;108685;1274;25444;-72
2024/03/18 08:32:21;;;;;;;7.80;5.50;;;;;;;1.23;71.79;96781.08;108641;1274;22553;-72
2024/03/18 08:34:52;;;;;;;8.30;6.10;;;;;;;1.72;72.12;96779.59;108699;1274;24244;-72
2024/03/18 08:37:22;;;;;;;11.70;8.20;;;;;;;1.80;70.98;96776.42;108713;1274;23033;-72
2024/03/18 08:39:54;;;;;;;9.60;6.50;;;;;;;1.58;70.36;96778.92;108639;1267;22570;-72
2024/03/18 08:42:25;;;;;;;7.90;6.40;;;;;;;1.29;70.48;96774.28;108680;1275;22529;-72
2024/03/18 08:44:55;;;;;;;10.20;6.30;;;;;;;1.03;70.25;96784.45;108659;1268;23289;-72
2024/03/18 08:47:25;;;;;;;7.20;5.60;;;;;;;0.79;70.06;96782.45;108638;1270;22520;-72
2024/03/18 08:49:56;;;;;;;7.20;4.40;;;;;;;0.71;70.77;96791.41;108647;1274;22608;-72
2024/03/18 08:52:27;;;;;;;7.30;4.70;;;;;;;0.73;70.93;96791.92;108606;1275;22544;-72
2024/03/18 08:54:57;;;;;;;7.80;5.90;;;;;;;0.63;70.68;96792.14;108643;1274;22664;-72
2024/03/18 08:57:29;;;;;;;9.00;5.60;;;;;;;0.42;70.57;96789.45;108675;1274;22749;-72
2024/03/18 08:59:59;;;;;;;10.00;6.80;;;;;;;0.40;71.01;96788.18;108662;1274;22515;-72
2024/03/18 09:02:30;;;;;;;11.10;7.70;;;;;;;0.38;71.34;96791.31;108660;1274;22522;-72
2024/03/18 09:05:00;;;;;;;11.80;7.60;;;;;;;0.36;71.31;96786.32;108661;1274;22532;-72
2024/03/18 09:07:31;;;;;;;8.10;5.60;;;;;;;0.41;71.83;96786.58;108713;1270;22547;-72
2024/03/18 09:10:02;;;;;;;8.00;5.00;;;;;;;0.51;71.79;96783.26;108642;1274;24260;-72
2024/03/18 09:12:33;;;;;;;7.70;5.70;;;;;;;0.50;71.62;96789.89;108680;1274;24291;-72
2024/03/18 09:15:05;;;;;;;7.90;5.90;;;;;;;0.49;71.47;96786.61;108638;1274;26427;-72
2024/03/18 09:17:35;;;;;;;6.70;4.90;;;;;;;0.56;71.90;96788.41;108668;1271;22517;-72
2024/03/18 09:20:09;;;;;;;6.80;5.30;;;;;;;0.69;72.08;96786.24;108649;1274;22572;-72
2024/03/18 09:22:42;;;;;;;7.90;5.40;;;;;;;0.81;72.05;96783.19;108708;1274;22556;-73
2024/03/18 09:25:15;;;;;;;7.90;5.90;;;;;;;1.00;72.49;96777.95;108645;1274;22525;-72
2024/03/18 09:27:49;;;;;;;6.80;4.90;;;;;;;1.23;72.60;96780.16;108605;1274;22528;-72
2024/03/18 09:30:21;;;;;;;7.20;4.80;;;;;;;1.55;72.36;96779.41;108653;1269;22537;-72
2024/03/18 09:32:51;;;;;;;8.00;4.80;;;;;;;1.58;71.29;96779.71;108681;1273;24235;-72
2024/03/18 09:35:23;;;;;;;6.20;4.40;;;;;;;1.42;70.67;96778.66;108656;1274;22522;-72
2024/03/18 09:37:53;;;;;;;5.30;3.90;;;;;;;1.25;70.35;96779.77;108703;1274;22547;-72
2024/03/18 09:40:28;;;;;;;5.30;3.30;;;;;;;1.12;70.44;96779.05;108667;1274;24233;-72
2024/03/18 09:42:58;;;;;;;3.70;3.00;;;;;;;1.03;69.91;96775.70;108661;1274;22526;-72
2024/03/18 09:45:29;;;;;;;8.40;4.10;;;;;;;0.98;69.97;96777.23;108633;1274;22528;-72
2024/03/18 09:48:00;;;;;;;8.90;4.40;;;;;;;1.01;70.10;96777.30;108670;1267;22527;-72
2024/03/18 09:50:31;;;;;;;4.50;2.40;;;;;;;0.89;69.45;96769.99;108632;1268;24234;-72
2024/03/18 09:53:02;;;;;;;5.30;2.90;;;;;;;0.74;68.81;96769.27;108584;1274;22535;-72
2024/03/18 09:55:34;;;;;;;7.00;3.30;;;;;;;0.61;68.19;96772.00;108655;1274;22559;-71
2024/03/18 09:58:11;;;;;;;17.50;6.60;;;;;;;0.61;68.49;96772.10;108690;1274;22522;-71
2024/03/18 10:00:44;;;;;;;11.50;5.80;;;;;;;0.68;68.18;96771.42;108629;1273;24498;-72
2024/03/18 10:03:20;;;;;;;7.50;3.80;;;;;;;0.76;68.53;96767.36;108657;1274;25408;-72
2024/03/18 10:05:51;;;;;;;5.20;3.10;;;;;;;0.91;68.32;96767.29;108673;1268;22546;-72
2024/03/18 10:08:22;;;;;;;4.40;2.70;;;;;;;0.99;68.45;96762.37;108663;1274;22535;-72
2024/03/18 10:10:53;;;;;;;4.80;2.50;;;;;;;1.13;68.68;96763.70;108694;1274;22544;-72
2024/03/18 10:13:24;;;;;;;3.50;2.20;;;;;;;1.43;68.99;96761.56;108606;1274;22557;-72
2024/03/18 10:15:55;;;;;;;3.60;2.10;;;;;;;1.81;68.81;96757.63;108676;1274;24254;-72
2024/03/18 10:18:28;;;;;;;3.60;2.40;;;;;;;2.22;69.20;96754.21;108644;1274;22539;-72
2024/03/18 10:21:02;;;;;;;3.70;2.10;;;;;;;2.58;68.65;96754.04;108642;1274;24383;-72
2024/03/18 10:23:32;;;;;;;2.20;2.00;;;;;;;2.82;68.32;96748.09;108684;1274;22546;-72
2024/03/18 10:26:07;;;;;;;3.70;2.40;;;;;;;3.04;68.00;96747.71;108650;1274;22640;-72
2024/03/18 10:28:39;;;;;;;3.90;2.30;;;;;;;3.24;67.63;96746.24;108642;1267;22530;-73
2024/03/18 10:31:14;;;;;;;4.40;2.40;;;;;;;3.43;67.26;96743.65;108708;1269;22526;-72
2024/03/18 10:33:47;;;;;;;3.40;2.30;;;;;;;3.48;66.52;96743.84;108576;1275;23503;-72
2024/03/18 10:36:24;;;;;;;9.50;4.20;;;;;;;3.30;65.72;96740.21;108630;1274;22559;-72
2024/03/18 10:39:07;;;;;;;4.10;2.60;;;;;;;3.02;65.19;96742.02;108711;1267;25217;-72
2024/03/18 10:41:40;;;;;;;5.10;3.00;;;;;;;3.08;65.61;96738.48;108686;1270;22564;-73
2024/03/18 10:44:17;;;;;;;7.30;3.90;;;;;;;3.21;65.56;96739.35;108630;1272;24273;-73
2024/03/18 10:46:48;;;;;;;5.00;2.60;;;;;;;3.42;65.87;96739.55;108645;1274;22938;-72
2024/03/18 10:49:22;;;;;;;5.20;2.80;;;;;;;3.67;65.26;96740.03;108639;1274;22555;-72
2024/03/18 10:51:53;;;;;;;2.50;1.80;;;;;;;3.62;64.35;96738.35;108716;1274;22541;-72
2024/03/18 10:54:24;;;;;;;2.80;1.90;;;;;;;3.19;62.59;96734.06;108611;1269;22541;-72
2024/03/18 10:56:55;;;;;;;3.00;1.90;;;;;;;2.79;62.24;96736.45;108641;1267;23247;-72
2024/03/18 10:59:25;;;;;;;2.40;2.10;;;;;;;2.73;62.89;96736.02;108678;1274;22583;-72
2024/03/18 11:01:56;;;;;;;2.60;1.70;;;;;;;2.85;63.27;96730.80;108658;1274;22530;-72
2024/03/18 11:04:27;;;;;;;2.60;2.10;;;;;;;3.00;63.26;96734.35;108654;1273;22512;-73
2024/03/18 11:07:00;;;;;;;3.00;1.80;;;;;;;3.32;63.88;96729.64;108660;1271;22538;-72
2024/03/18 11:09:31;;;;;;;2.00;1.80;;;;;;;3.65;63.81;96727.19;108700;1270;22761;-72
2024/03/18 11:12:01;;;;;;;3.40;2.20;;;;;;;3.89;63.37;96721.32;108678;1274;22547;-72
2024/03/18 11:14:32;;;;;;;3.30;1.80;;;;;;;4.03;63.06;96715.25;108659;1274;22558;-72
2024/03/18 11:17:08;;;;;;;5.50;2.90;;;;;;;4.09;62.36;96714.16;108673;1272;22525;-72
2024/03/18 11:19:42;;;;;;;3.60;2.30;;;;;;;3.74;61.02;96718.87;108674;1274;22528;-72
2024/03/18 11:22:13;;;;;;;2.70;1.90;;;;;;;3.39;60.88;96717.47;108658;1271;22530;-72
2024/03/18 11:24:43;;;;;;;3.40;2.10;;;;;;;3.26;60.85;96717.30;108638;1274;22595;-73
2024/03/18 11:27:17;;;;;;;2.80;1.80;;;;;;;3.33;61.33;96713.52;108664;1274;22523;-73
2024/03/18 11:29:51;;;;;;;1.90;1.50;;;;;;;3.58;62.04;96712.95;108662;1274;22522;-73
2024/03/18 11:32:22;;;;;;;2.90;1.80;;;;;;;3.73;61.26;96711.88;108632;1274;22536;-72
2024/03/18 11:35:00;;;;;;;3.20;2.20;;;;;;;3.40;60.06;96709.00;108631;1274;22550;-72
2024/03/18 11:37:32;;;;;;;4.20;2.40;;;;;;;3.32;60.57;96713.13;108673;1274;22545;-72
2024/03/18 11:40:13;;;;;;;3.10;2.10;;;;;;;3.43;61.07;96707.76;108649;1269;22519;-72
2024/03/18 11:42:44;;;;;;;5.00;2.50;;;;;;;3.27;59.99;96707.77;108655;1274;24258;-72
2024/03/18 11:45:21;;;;;;;3.60;1.80;;;;;;;2.97;59.47;96702.34;108657;1272;22588;-72
2024/03/18 11:48:02;;;;;;;3.00;2.10;;;;;;;2.82;59.64;96705.60;108646;1274;22528;-72
2024/03/18 11:50:34;;;;;;;5.20;2.00;;;;;;;2.73;59.92;96703.41;108661;1274;22673;-72
2024/03/18 11:53:07;;;;;;;2.20;1.80;;;;;;;2.74;60.17;96702.07;108615;1272;24312;-72
2024/03/18 11:55:40;;;;;;;3.40;1.90;;;;;;;2.77;60.17;96698.48;108664;1272;22532;-72